Welcome to our Virtual Airline
Sign-in:

Flight MFC36591

  • Submitted By: Igor Doksas
  • Departure Airport: Port Lions (ORI)
  • Arrival Airport: Port Williams SPB (KPR)
  • Aircraft: DHC2 BEAVERA (N001MM-AM)
  • Flight Time: 00.30.20
  • Date Submitted: 2018/11/06
  • Route: NO STOPS
  • Status: Accepted
Flight Details
Gross Revenue:
(5 load / $ 61.00 per unit
$ 305.00
Fuel Cost:
(42.6377 fuel used @ 5.1 / unit)
$ 217.45

Additional Log Information:

View Log

FS[09:19] NOTE: Boarding has started
FS[09:19] ----- Flight Opened -----
FS[09:19] Cigar Box - 1.1.4.0
FS[09:19] FS: FSX
FS[09:19] FSUIPC: v4.966
FS[09:19] Flight Number: MFC36591
FS[09:19] FS Aircraft: DHC-2A Misty Moorings 3 Amph1
FS[09:19] FS Model: DHC2
FS[09:19] FS Type: DeHavilland
FS[09:19] Departure: ORI
FS[09:19] Arrival: KPR
FS[09:19] Flight Level: 3500
FS[09:19] Flight Type: H
FS[09:19] Passengers: 5
FS[09:19] FOB: 141 lbs
FS[09:19] Gate: 2 - ORI
FS[09:19] Crash Detection: Disabled
FS[09:19] Crash Detection Aircraft: Disabled
FS[09:19] Engines: 1 Piston
FS[09:19] FS: Paused
FS[09:19] Parking Brake: Engaged
FS[09:19] Main Door Open
FS[09:19] COM1: 128.30
FS[09:19] COM2: 127.80
FS[09:19] Transponder: 1200
FS[09:19] NAV1: 113.70
FS[09:19] NAV2: 110.60
FS[09:19] ADF1: 284.0
FS[09:19] ADF2: 240.0
FS[09:19] Navigation Mode: GPS
FS[09:19] Navigation Mode: GPS
FS[09:19] FS: Unpaused
FS[09:19] Main Door Closed
FS[09:20] Light Data: Beacon ON
FS[09:20] Engine 1: Started
FS[09:20] Light Data: Navigation ON
FS[09:20] Light Data: Landing lights ON
FS[09:21] Parking Brake: Released
FS[09:21] NOTE: Taxi started
FS[09:21] Flaps: Position 2
FS[09:22] NOTE: ----- TAKE OFF -----
FS[09:22] GS: 50 knots
FS[09:22] TAS: 51 knots
FS[09:22] IAS: 51 knots
FS[09:22] VS: 5 fpm
FS[09:22] FOB: 140 lbs
FS[09:22] Heading: 42°
FS[09:22] Pitch: 1°
FS[09:22] Bank: 0°
FS[09:22] Aircraft Weight: 3910.38 lbs
FS[09:22] Nearest Airport: ORI
FS[09:22] Distance: 0.13 miles
FS[09:22] Runway: ???
FS[09:22] Ground Surface: Gravel
FS[09:22] Ground Condition: Normal
FS[09:22] NOTE: Weather Report
FS[09:22] Wind Heading: 344°
FS[09:22] Wind Speed: 0 knots
FS[09:22] OAT: 14° C
FS[09:22] TAT: 15° C
FS[09:22] Precipitation: None
FS[09:22] Dew Point: 4° C
FS[09:22] Visibility: 62 miles
FS[09:22] METAR: No METAR available for ORI.
FS[09:22] NOTE: Climb started
FS[09:22] Flaps: Position 1
FS[09:22] GS: 68 knots
FS[09:22] TAS: 70 knots
FS[09:22] IAS: 70 knots
FS[09:22] VS: 948 fpm
FS[09:22] Autopilot: Engaged
FS[09:22] AGL: 141 ft
FS[09:22] AMSL: 190 ft
FS[09:22] View Mode: Virtual Cockpit
FS[09:22] Flaps: Position 0
FS[09:22] GS: 75 knots
FS[09:22] TAS: 77 knots
FS[09:22] IAS: 77 knots
FS[09:22] VS: 1273 fpm
FS[09:22] Landing Gear: Retracted
FS[09:22] GS: 81 knots
FS[09:22] TAS: 82 knots
FS[09:22] IAS: 82 knots
FS[09:22] VS: 861 fpm
FS[09:22] AGL: 475 ft
FS[09:22] AMSL: 475 ft
FS[09:25] NOTE: TOC reached
FS[09:25] NOTE: Cruise started
FS[09:25] GS: 126 knots
FS[09:25] TAS: 128 knots
FS[09:25] IAS: 122 knots
FS[09:25] VS: 199 fpm
FS[09:25] FOB: 125 lbs
FS[09:25] Heading: 3°
FS[09:25] Pitch: 1°
FS[09:25] Bank: 0°
FS[09:25] Aircraft Weight: 3895.71 lbs
FS[09:26] Recovery: Flight Saved
FS[09:30] Recovery: Flight Saved
FS[09:34] Recovery: Flight Saved
FS[09:38] Recovery: Flight Saved
FS[09:42] Recovery: Flight Saved
FS[09:43] NOTE: TOD reached
FS[09:43] NOTE: Descent started
FS[09:43] GS: 126 knots
FS[09:43] TAS: 127 knots
FS[09:43] IAS: 122 knots
FS[09:43] VS: -754 fpm
FS[09:43] FOB: 64 lbs
FS[09:43] Heading: 322°
FS[09:43] Pitch: 2°
FS[09:43] Bank: 3°
FS[09:43] Aircraft Weight: 3834.45 lbs
FS[09:43] NOTE: On approach
FS[09:44] Light Data: Landing lights OFF
FS[09:44] AGL: 1785 ft
FS[09:44] AMSL: 2014 ft
FS[09:44] Light Data: Landing lights ON
FS[09:44] AGL: 1909 ft
FS[09:44] AMSL: 2004 ft
FS[09:46] Recovery: Flight Saved
FS[09:48] Flaps: Position 1
FS[09:48] GS: 103 knots
FS[09:48] TAS: 104 knots
FS[09:48] IAS: 103 knots
FS[09:48] VS: -495 fpm
FS[09:49] Flaps: Position 2
FS[09:49] GS: 91 knots
FS[09:49] TAS: 92 knots
FS[09:49] IAS: 91 knots
FS[09:49] VS: -10 fpm
FS[09:49] Flaps: Position 3
FS[09:49] GS: 81 knots
FS[09:49] TAS: 82 knots
FS[09:49] IAS: 81 knots
FS[09:49] VS: 164 fpm
FS[09:50] Autopilot: Disengaged
FS[09:50] AGL: 196 ft
FS[09:50] AMSL: 196 ft
FS[09:51] NOTE: ----- LANDED -----
FS[09:51] Landing Rate: -40.75 fpm
FS[09:51] GS: 48 knots
FS[09:51] TAS: 50 knots
FS[09:51] IAS: 50 knots
FS[09:51] VS: -40 fpm
FS[09:51] FOB: 46 lbs
FS[09:51] Heading: 84°
FS[09:51] Pitch: 3°
FS[09:51] Bank: 0°
FS[09:51] Aircraft Weight: 3816.89 lbs
FS[09:51] Nearest Airport: KPR
FS[09:51] Distance: 0.83 miles
FS[09:51] Runway: ???
FS[09:51] Ground Surface: Water
FS[09:51] Ground Condition: Normal
FS[09:51] NOTE: Weather Report
FS[09:51] Wind Heading: 344°
FS[09:51] Wind Speed: 0 knots
FS[09:51] OAT: 15° C
FS[09:51] TAT: 15° C
FS[09:51] Precipitation: None
FS[09:51] Dew Point: 4° C
FS[09:51] Visibility: 62 miles
FS[09:51] METAR: KPRB 052353Z AUTO 12008KT 10SM CLR 27/02 A2985 RMK AO2 SLP103 T02670022 10272 20161 55013KPRC 052353Z 24011KT 10SM CLR 18/M01 A2998 RMK AO2 SLP101 T01831011 10211 20172 56002KPRG 060015Z AUTO 11008KT 10SM -RA BKN050 BKN070 OVC090 10/09 A2972 RMK AO2 P0001 T01020092KPRN 060003Z AUTO 15003KT 10SM FEW019 SCT028 BKN036 23/19 A2995 RMK AO2 T02280194KPRO 060055Z AUTO 17006KT 7SM OVC004 08/08 A2954 RMK AO2 T00750075KPRS 060015Z AUTO 00000KT 10SM CLR 26/06 A2988 RMK AO2 T02550056KPRX 052356Z AUTO 17003KT 10SM CLR 18/17 A2975 RMK AO2 SLP088 6//// T01830167 10217 20161 53014
FS[09:51] View Mode: Virtual Cockpit
FS[09:51] Flaps: Position 0
FS[09:51] NOTE: Taxi started
FS[09:51] Light Data: Landing lights OFF
FS[09:51] Light Data: Navigation OFF
FS[09:51] Engine 1: Stopped
FS[09:52] NOTE: Arrived
FS[09:52] Parking Brake: Engaged
FS[09:52] Light Data: Beacon OFF
FS[09:52] Main Door Open
FS[09:52] Gate: n/a
FS[09:52] NOTE: Flight Completed
FS[09:52] FS Aircraft: DHC-2A Misty Moorings 3 Amph1
FS[09:52] FS Model: DHC2
FS[09:52] FS Type: DeHavilland
FS[09:52] FOB: 46 lbs
FS[09:52] Fuel Used: 94 lbs
FS[09:52] Flight Time: 00:30:20
FS[09:52] Flight Time (Dawn): 00:00:00
FS[09:52] Flight Time (Day): 00:30:20
FS[09:52] Flight Time (Dusk): 00:00:00
FS[09:52] Flight Time (Night): 00:00:00
FS[09:52] Total Landings: 1
FS[09:52] MaxSim Rate: 0x
FS[09:52] Cigar Box - 1.1.4.0
FS[09:52] ----- Flight Closed -----

Route Map